sensor_id;sensor_type;location;lat;lon;timestamp;temperature;humidity
26278;DHT22;14000;52.056;8.510;2023-12-04T00:01:49;-0.30;99.90
26278;DHT22;14000;52.056;8.510;2023-12-04T00:04:14;-0.30;99.90
26278;DHT22;14000;52.056;8.510;2023-12-04T00:06:43;-0.30;99.90
26278;DHT22;14000;52.056;8.510;2023-12-04T00:09:08;-0.30;99.90
26278;DHT22;14000;52.056;8.510;2023-12-04T00:11:34;-0.30;99.90
26278;DHT22;14000;52.056;8.510;2023-12-04T00:14:00;-0.30;99.90
26278;DHT22;14000;52.056;8.510;2023-12-04T00:16:26;-0.30;99.90
26278;DHT22;14000;52.056;8.510;2023-12-04T00:18:51;-0.30;99.90
26278;DHT22;14000;52.056;8.510;2023-12-04T00:21:17;-0.40;99.90
26278;DHT22;14000;52.056;8.510;2023-12-04T00:23:43;-0.40;99.90
26278;DHT22;14000;52.056;8.510;2023-12-04T00:26:08;-0.30;99.90
26278;DHT22;14000;52.056;8.510;2023-12-04T00:28:37;-0.40;99.90
26278;DHT22;14000;52.056;8.510;2023-12-04T00:31:02;-0.30;99.90
26278;DHT22;14000;52.056;8.510;2023-12-04T00:33:28;-0.30;99.90
26278;DHT22;14000;52.056;8.510;2023-12-04T00:35:54;-0.30;99.90
26278;DHT22;14000;52.056;8.510;2023-12-04T00:38:19;-0.30;99.90
26278;DHT22;14000;52.056;8.510;2023-12-04T00:40:45;-0.30;99.90
26278;DHT22;14000;52.056;8.510;2023-12-04T00:43:10;-0.30;99.90
26278;DHT22;14000;52.056;8.510;2023-12-04T00:45:36;-0.30;99.90
26278;DHT22;14000;52.056;8.510;2023-12-04T00:48:02;-0.30;99.90
26278;DHT22;14000;52.056;8.510;2023-12-04T00:50:28;-0.40;99.90
26278;DHT22;14000;52.056;8.510;2023-12-04T00:52:53;-0.40;99.90
26278;DHT22;14000;52.056;8.510;2023-12-04T00:55:19;-0.40;99.90
26278;DHT22;14000;52.056;8.510;2023-12-04T00:57:45;-0.30;99.90
26278;DHT22;14000;52.056;8.510;2023-12-04T01:00:11;-0.40;99.90
26278;DHT22;14000;52.056;8.510;2023-12-04T01:02:37;-0.30;99.90
26278;DHT22;14000;52.056;8.510;2023-12-04T01:05:03;-0.40;99.90
26278;DHT22;14000;52.056;8.510;2023-12-04T01:07:28;-0.40;99.90
26278;DHT22;14000;52.056;8.510;2023-12-04T01:09:54;-0.40;99.90
26278;DHT22;14000;52.056;8.510;2023-12-04T01:12:20;-0.40;99.90
26278;DHT22;14000;52.056;8.510;2023-12-04T01:14:46;-0.40;99.90
26278;DHT22;14000;52.056;8.510;2023-12-04T01:17:12;-0.40;99.90
26278;DHT22;14000;52.056;8.510;2023-12-04T01:19:37;-0.30;99.90
26278;DHT22;14000;52.056;8.510;2023-12-04T01:22:03;-0.30;99.90
26278;DHT22;14000;52.056;8.510;2023-12-04T01:24:29;-0.30;99.90
26278;DHT22;14000;52.056;8.510;2023-12-04T01:26:54;-0.30;99.90
26278;DHT22;14000;52.056;8.510;2023-12-04T01:29:20;-0.40;99.90
26278;DHT22;14000;52.056;8.510;2023-12-04T01:31:45;-0.30;99.90
26278;DHT22;14000;52.056;8.510;2023-12-04T01:34:11;-0.30;99.90
26278;DHT22;14000;52.056;8.510;2023-12-04T01:36:40;-0.30;99.90
26278;DHT22;14000;52.056;8.510;2023-12-04T01:39:06;-0.30;99.90
26278;DHT22;14000;52.056;8.510;2023-12-04T01:41:31;-0.30;99.90
26278;DHT22;14000;52.056;8.510;2023-12-04T01:43:57;-0.30;99.90
26278;DHT22;14000;52.056;8.510;2023-12-04T01:46:23;-0.20;99.90
26278;DHT22;14000;52.056;8.510;2023-12-04T01:48:49;-0.20;99.90
26278;DHT22;14000;52.056;8.510;2023-12-04T01:51:15;-0.30;99.90
26278;DHT22;14000;52.056;8.510;2023-12-04T01:53:42;-0.20;99.90
26278;DHT22;14000;52.056;8.510;2023-12-04T01:56:09;-0.30;99.90
26278;DHT22;14000;52.056;8.510;2023-12-04T01:58:35;-0.20;99.90
26278;DHT22;14000;52.056;8.510;2023-12-04T02:01:02;-0.20;99.90
26278;DHT22;14000;52.056;8.510;2023-12-04T02:03:28;-0.20;99.90
26278;DHT22;14000;52.056;8.510;2023-12-04T02:05:54;-0.20;99.90
26278;DHT22;14000;52.056;8.510;2023-12-04T02:08:22;-0.20;99.90
26278;DHT22;14000;52.056;8.510;2023-12-04T02:10:48;-0.20;99.90
26278;DHT22;14000;52.056;8.510;2023-12-04T02:13:13;-0.20;99.90
26278;DHT22;14000;52.056;8.510;2023-12-04T02:15:40;-0.20;99.90
26278;DHT22;14000;52.056;8.510;2023-12-04T02:18:05;-0.20;99.90
26278;DHT22;14000;52.056;8.510;2023-12-04T02:20:32;-0.20;99.90
26278;DHT22;14000;52.056;8.510;2023-12-04T02:22:59;-0.10;99.90
26278;DHT22;14000;52.056;8.510;2023-12-04T02:25:25;-0.10;99.90
26278;DHT22;14000;52.056;8.510;2023-12-04T02:27:50;-0.10;99.90
26278;DHT22;14000;52.056;8.510;2023-12-04T02:30:21;-0.10;99.90
26278;DHT22;14000;52.056;8.510;2023-12-04T02:32:48;-0.20;99.90
26278;DHT22;14000;52.056;8.510;2023-12-04T02:35:25;-0.10;99.90
26278;DHT22;14000;52.056;8.510;2023-12-04T02:37:53;-0.10;99.90
26278;DHT22;14000;52.056;8.510;2023-12-04T02:40:19;-0.10;99.90
26278;DHT22;14000;52.056;8.510;2023-12-04T02:42:44;-0.10;99.90
26278;DHT22;14000;52.056;8.510;2023-12-04T02:45:10;0.00;99.90
26278;DHT22;14000;52.056;8.510;2023-12-04T02:47:36;-0.10;99.90
26278;DHT22;14000;52.056;8.510;2023-12-04T02:50:01;-0.10;99.90
26278;DHT22;14000;52.056;8.510;2023-12-04T02:52:27;-0.10;99.90
26278;DHT22;14000;52.056;8.510;2023-12-04T02:54:52;-0.10;99.90
26278;DHT22;14000;52.056;8.510;2023-12-04T02:57:18;-0.10;99.90
26278;DHT22;14000;52.056;8.510;2023-12-04T02:59:44;-0.10;99.90
26278;DHT22;14000;52.056;8.510;2023-12-04T03:02:09;-0.10;99.90
26278;DHT22;14000;52.056;8.510;2023-12-04T03:04:35;-0.10;99.90
26278;DHT22;14000;52.056;8.510;2023-12-04T03:07:00;-0.10;99.90
26278;DHT22;14000;52.056;8.510;2023-12-04T03:09:26;-0.10;99.90
26278;DHT22;14000;52.056;8.510;2023-12-04T03:11:52;-0.10;99.90
26278;DHT22;14000;52.056;8.510;2023-12-04T03:14:17;-0.10;99.90
26278;DHT22;14000;52.056;8.510;2023-12-04T03:16:43;-0.10;99.90
26278;DHT22;14000;52.056;8.510;2023-12-04T03:19:08;-0.10;99.90
26278;DHT22;14000;52.056;8.510;2023-12-04T03:21:34;0.00;99.90
26278;DHT22;14000;52.056;8.510;2023-12-04T03:24:00;0.00;99.90
26278;DHT22;14000;52.056;8.510;2023-12-04T03:26:25;0.00;99.90
26278;DHT22;14000;52.056;8.510;2023-12-04T03:28:52;0.00;99.90
26278;DHT22;14000;52.056;8.510;2023-12-04T03:31:17;0.00;99.90
26278;DHT22;14000;52.056;8.510;2023-12-04T03:33:43;0.00;99.90
26278;DHT22;14000;52.056;8.510;2023-12-04T03:36:09;0.10;99.90
26278;DHT22;14000;52.056;8.510;2023-12-04T03:38:34;0.10;99.90
26278;DHT22;14000;52.056;8.510;2023-12-04T03:41:00;0.10;99.90
26278;DHT22;14000;52.056;8.510;2023-12-04T03:43:25;0.10;99.90
26278;DHT22;14000;52.056;8.510;2023-12-04T03:45:51;0.10;99.90
26278;DHT22;14000;52.056;8.510;2023-12-04T03:48:16;0.10;99.90
26278;DHT22;14000;52.056;8.510;2023-12-04T03:50:42;0.20;99.90
26278;DHT22;14000;52.056;8.510;2023-12-04T03:53:08;0.10;99.90
26278;DHT22;14000;52.056;8.510;2023-12-04T03:55:33;0.20;99.90
26278;DHT22;14000;52.056;8.510;2023-12-04T03:57:59;0.20;99.90
26278;DHT22;14000;52.056;8.510;2023-12-04T04:00:24;0.20;99.90
26278;DHT22;14000;52.056;8.510;2023-12-04T04:02:50;0.20;99.90
26278;DHT22;14000;52.056;8.510;2023-12-04T04:05:16;0.30;99.90
26278;DHT22;14000;52.056;8.510;2023-12-04T04:07:41;0.30;99.90
26278;DHT22;14000;52.056;8.510;2023-12-04T04:10:08;0.30;99.90
26278;DHT22;14000;52.056;8.510;2023-12-04T04:12:34;0.30;99.90
26278;DHT22;14000;52.056;8.510;2023-12-04T04:14:59;0.30;99.90
26278;DHT22;14000;52.056;8.510;2023-12-04T04:17:25;0.30;99.90
26278;DHT22;14000;52.056;8.510;2023-12-04T04:19:52;0.30;99.90
26278;DHT22;14000;52.056;8.510;2023-12-04T04:22:19;0.30;99.90
26278;DHT22;14000;52.056;8.510;2023-12-04T04:24:44;0.30;99.90
26278;DHT22;14000;52.056;8.510;2023-12-04T04:27:10;0.30;99.90
26278;DHT22;14000;52.056;8.510;2023-12-04T04:29:35;0.30;99.90
26278;DHT22;14000;52.056;8.510;2023-12-04T04:32:01;0.30;99.90
26278;DHT22;14000;52.056;8.510;2023-12-04T04:34:26;0.30;99.90
26278;DHT22;14000;52.056;8.510;2023-12-04T04:36:52;0.30;99.90
26278;DHT22;14000;52.056;8.510;2023-12-04T04:39:17;0.40;99.90
26278;DHT22;14000;52.056;8.510;2023-12-04T04:41:44;0.40;99.90
26278;DHT22;14000;52.056;8.510;2023-12-04T04:44:09;0.40;99.90
26278;DHT22;14000;52.056;8.510;2023-12-04T04:46:35;0.40;99.90
26278;DHT22;14000;52.056;8.510;2023-12-04T04:49:01;0.40;99.90
26278;DHT22;14000;52.056;8.510;2023-12-04T04:51:27;0.40;99.90
26278;DHT22;14000;52.056;8.510;2023-12-04T04:53:53;0.40;99.90
26278;DHT22;14000;52.056;8.510;2023-12-04T04:56:19;0.40;99.90
26278;DHT22;14000;52.056;8.510;2023-12-04T04:58:44;0.40;99.90
26278;DHT22;14000;52.056;8.510;2023-12-04T05:01:10;0.40;99.90
26278;DHT22;14000;52.056;8.510;2023-12-04T05:03:35;0.40;99.90
26278;DHT22;14000;52.056;8.510;2023-12-04T05:06:01;0.40;99.90
26278;DHT22;14000;52.056;8.510;2023-12-04T05:08:26;0.40;99.90
26278;DHT22;14000;52.056;8.510;2023-12-04T05:10:52;0.50;99.90
26278;DHT22;14000;52.056;8.510;2023-12-04T05:13:18;0.50;99.90
26278;DHT22;14000;52.056;8.510;2023-12-04T05:15:43;0.50;99.90
26278;DHT22;14000;52.056;8.510;2023-12-04T05:18:09;0.50;99.90
26278;DHT22;14000;52.056;8.510;2023-12-04T05:20:34;0.50;99.90
26278;DHT22;14000;52.056;8.510;2023-12-04T05:23:00;0.60;99.90
26278;DHT22;14000;52.056;8.510;2023-12-04T05:25:26;0.60;99.90
26278;DHT22;14000;52.056;8.510;2023-12-04T05:27:51;0.50;99.90
26278;DHT22;14000;52.056;8.510;2023-12-04T05:30:17;0.50;99.90
26278;DHT22;14000;52.056;8.510;2023-12-04T05:32:43;0.50;99.90
26278;DHT22;14000;52.056;8.510;2023-12-04T05:35:08;0.50;99.90
26278;DHT22;14000;52.056;8.510;2023-12-04T05:37:34;0.50;99.90
26278;DHT22;14000;52.056;8.510;2023-12-04T05:39:59;0.50;99.90
26278;DHT22;14000;52.056;8.510;2023-12-04T05:42:25;0.50;99.90
26278;DHT22;14000;52.056;8.510;2023-12-04T05:44:51;0.50;99.90
26278;DHT22;14000;52.056;8.510;2023-12-04T05:47:20;0.50;99.90
26278;DHT22;14000;52.056;8.510;2023-12-04T05:49:46;0.50;99.90
26278;DHT22;14000;52.056;8.510;2023-12-04T05:52:12;0.50;99.90
26278;DHT22;14000;52.056;8.510;2023-12-04T05:54:38;0.50;99.90
26278;DHT22;14000;52.056;8.510;2023-12-04T05:57:04;0.50;99.90
26278;DHT22;14000;52.056;8.510;2023-12-04T05:59:30;0.50;99.90
26278;DHT22;14000;52.056;8.510;2023-12-04T06:01:55;0.50;99.90
26278;DHT22;14000;52.056;8.510;2023-12-04T06:04:21;0.50;99.90
26278;DHT22;14000;52.056;8.510;2023-12-04T06:06:47;0.50;99.90
26278;DHT22;14000;52.056;8.510;2023-12-04T06:09:12;0.50;99.90
26278;DHT22;14000;52.056;8.510;2023-12-04T06:11:39;0.50;99.90
26278;DHT22;14000;52.056;8.510;2023-12-04T06:14:05;0.50;99.90
26278;DHT22;14000;52.056;8.510;2023-12-04T06:16:31;0.50;99.90
26278;DHT22;14000;52.056;8.510;2023-12-04T06:18:56;0.60;99.90
26278;DHT22;14000;52.056;8.510;2023-12-04T06:21:22;0.50;99.90
26278;DHT22;14000;52.056;8.510;2023-12-04T06:23:47;0.50;99.90
26278;DHT22;14000;52.056;8.510;2023-12-04T06:26:13;0.50;99.90
26278;DHT22;14000;52.056;8.510;2023-12-04T06:28:39;0.50;99.90
26278;DHT22;14000;52.056;8.510;2023-12-04T06:31:05;0.50;99.90
26278;DHT22;14000;52.056;8.510;2023-12-04T06:33:31;0.60;99.90
26278;DHT22;14000;52.056;8.510;2023-12-04T06:35:57;0.60;99.90
26278;DHT22;14000;52.056;8.510;2023-12-04T06:38:24;0.60;99.90
26278;DHT22;14000;52.056;8.510;2023-12-04T06:40:51;0.60;99.90
26278;DHT22;14000;52.056;8.510;2023-12-04T06:43:17;0.50;99.90
26278;DHT22;14000;52.056;8.510;2023-12-04T06:45:45;0.50;99.90
26278;DHT22;14000;52.056;8.510;2023-12-04T06:48:15;0.50;99.90
26278;DHT22;14000;52.056;8.510;2023-12-04T06:50:40;0.50;99.90
26278;DHT22;14000;52.056;8.510;2023-12-04T06:53:06;0.60;99.90
26278;DHT22;14000;52.056;8.510;2023-12-04T06:55:32;0.60;99.90
26278;DHT22;14000;52.056;8.510;2023-12-04T06:57:57;0.60;99.90
26278;DHT22;14000;52.056;8.510;2023-12-04T07:00:23;0.60;99.90
26278;DHT22;14000;52.056;8.510;2023-12-04T07:02:49;0.60;99.90
26278;DHT22;14000;52.056;8.510;2023-12-04T07:05:15;0.60;99.90
26278;DHT22;14000;52.056;8.510;2023-12-04T07:07:41;0.60;99.90
26278;DHT22;14000;52.056;8.510;2023-12-04T07:10:07;0.60;99.90
26278;DHT22;14000;52.056;8.510;2023-12-04T07:12:33;0.60;99.90
26278;DHT22;14000;52.056;8.510;2023-12-04T07:14:58;0.60;99.90
26278;DHT22;14000;52.056;8.510;2023-12-04T07:17:24;0.60;99.90
26278;DHT22;14000;52.056;8.510;2023-12-04T07:19:50;0.60;99.90
26278;DHT22;14000;52.056;8.510;2023-12-04T07:22:15;0.60;99.90
26278;DHT22;14000;52.056;8.510;2023-12-04T07:24:41;0.60;99.90
26278;DHT22;14000;52.056;8.510;2023-12-04T07:27:06;0.60;99.90
26278;DHT22;14000;52.056;8.510;2023-12-04T07:29:32;0.60;99.90
26278;DHT22;14000;52.056;8.510;2023-12-04T07:31:57;0.60;99.90
26278;DHT22;14000;52.056;8.510;2023-12-04T07:34:24;0.60;99.90
26278;DHT22;14000;52.056;8.510;2023-12-04T07:36:50;0.60;99.90
26278;DHT22;14000;52.056;8.510;2023-12-04T07:39:16;0.60;99.90
26278;DHT22;14000;52.056;8.510;2023-12-04T07:41:41;0.60;99.90
26278;DHT22;14000;52.056;8.510;2023-12-04T07:44:07;0.60;99.90
26278;DHT22;14000;52.056;8.510;2023-12-04T07:46:33;0.60;99.90
26278;DHT22;14000;52.056;8.510;2023-12-04T07:48:59;0.60;99.90
26278;DHT22;14000;52.056;8.510;2023-12-04T07:51:25;0.60;99.90
26278;DHT22;14000;52.056;8.510;2023-12-04T07:53:50;0.60;99.90
26278;DHT22;14000;52.056;8.510;2023-12-04T07:56:16;0.60;99.90
26278;DHT22;14000;52.056;8.510;2023-12-04T07:58:41;0.50;99.90
26278;DHT22;14000;52.056;8.510;2023-12-04T08:01:07;0.50;99.90
26278;DHT22;14000;52.056;8.510;2023-12-04T08:03:33;0.50;99.90
26278;DHT22;14000;52.056;8.510;2023-12-04T08:05:59;0.50;99.90
26278;DHT22;14000;52.056;8.510;2023-12-04T08:08:25;0.50;99.90
26278;DHT22;14000;52.056;8.510;2023-12-04T08:10:50;0.60;99.90
26278;DHT22;14000;52.056;8.510;2023-12-04T08:13:16;0.50;99.90
26278;DHT22;14000;52.056;8.510;2023-12-04T08:15:42;0.50;99.90
26278;DHT22;14000;52.056;8.510;2023-12-04T08:18:08;0.50;99.90
26278;DHT22;14000;52.056;8.510;2023-12-04T08:20:34;0.50;99.90
26278;DHT22;14000;52.056;8.510;2023-12-04T08:23:00;0.60;99.90
26278;DHT22;14000;52.056;8.510;2023-12-04T08:25:25;0.60;99.90
26278;DHT22;14000;52.056;8.510;2023-12-04T08:27:51;0.60;99.90
26278;DHT22;14000;52.056;8.510;2023-12-04T08:30:17;0.60;99.90
26278;DHT22;14000;52.056;8.510;2023-12-04T08:32:43;0.60;99.90
26278;DHT22;14000;52.056;8.510;2023-12-04T08:35:09;0.60;99.90
26278;DHT22;14000;52.056;8.510;2023-12-04T08:37:34;0.60;99.90
26278;DHT22;14000;52.056;8.510;2023-12-04T08:40:00;0.60;99.90
26278;DHT22;14000;52.056;8.510;2023-12-04T08:42:25;0.60;99.90
26278;DHT22;14000;52.056;8.510;2023-12-04T08:44:51;0.70;99.90
26278;DHT22;14000;52.056;8.510;2023-12-04T08:47:17;0.70;99.90
26278;DHT22;14000;52.056;8.510;2023-12-04T08:49:43;0.70;99.90
26278;DHT22;14000;52.056;8.510;2023-12-04T08:52:08;0.70;99.90
26278;DHT22;14000;52.056;8.510;2023-12-04T08:54:34;0.70;99.90
26278;DHT22;14000;52.056;8.510;2023-12-04T08:57:00;0.80;99.90
26278;DHT22;14000;52.056;8.510;2023-12-04T08:59:26;0.80;99.90
26278;DHT22;14000;52.056;8.510;2023-12-04T09:01:51;0.80;99.90
26278;DHT22;14000;52.056;8.510;2023-12-04T09:04:17;0.80;99.90
26278;DHT22;14000;52.056;8.510;2023-12-04T09:06:43;0.90;99.90
26278;DHT22;14000;52.056;8.510;2023-12-04T09:09:08;0.90;99.90
26278;DHT22;14000;52.056;8.510;2023-12-04T09:11:34;1.00;99.90
26278;DHT22;14000;52.056;8.510;2023-12-04T09:13:59;1.10;99.90
26278;DHT22;14000;52.056;8.510;2023-12-04T09:16:25;1.10;99.90
26278;DHT22;14000;52.056;8.510;2023-12-04T09:18:50;1.10;99.90
26278;DHT22;14000;52.056;8.510;2023-12-04T09:21:17;1.10;99.90
26278;DHT22;14000;52.056;8.510;2023-12-04T09:23:42;1.10;99.90
26278;DHT22;14000;52.056;8.510;2023-12-04T09:26:08;1.10;99.90
26278;DHT22;14000;52.056;8.510;2023-12-04T09:28:35;1.10;99.90
26278;DHT22;14000;52.056;8.510;2023-12-04T09:31:01;1.10;99.90
26278;DHT22;14000;52.056;8.510;2023-12-04T09:33:27;1.10;99.90
26278;DHT22;14000;52.056;8.510;2023-12-04T09:35:52;1.10;99.90
26278;DHT22;14000;52.056;8.510;2023-12-04T09:38:18;1.10;99.90
26278;DHT22;14000;52.056;8.510;2023-12-04T09:40:44;1.10;99.90
26278;DHT22;14000;52.056;8.510;2023-12-04T09:43:09;1.20;99.90
26278;DHT22;14000;52.056;8.510;2023-12-04T09:45:36;1.20;99.90
26278;DHT22;14000;52.056;8.510;2023-12-04T09:48:04;1.20;99.90
26278;DHT22;14000;52.056;8.510;2023-12-04T09:50:30;1.20;99.90
26278;DHT22;14000;52.056;8.510;2023-12-04T09:52:59;1.20;99.90
26278;DHT22;14000;52.056;8.510;2023-12-04T09:55:26;1.20;99.90
26278;DHT22;14000;52.056;8.510;2023-12-04T09:57:52;1.20;99.90
26278;DHT22;14000;52.056;8.510;2023-12-04T10:00:19;1.20;99.90
26278;DHT22;14000;52.056;8.510;2023-12-04T10:02:46;1.20;99.90
26278;DHT22;14000;52.056;8.510;2023-12-04T10:05:12;1.30;99.90
26278;DHT22;14000;52.056;8.510;2023-12-04T10:07:37;1.30;99.90
26278;DHT22;14000;52.056;8.510;2023-12-04T10:10:04;1.30;99.90
26278;DHT22;14000;52.056;8.510;2023-12-04T10:12:32;1.30;99.90
26278;DHT22;14000;52.056;8.510;2023-12-04T10:15:09;1.30;99.90
26278;DHT22;14000;52.056;8.510;2023-12-04T10:17:37;1.30;99.90
26278;DHT22;14000;52.056;8.510;2023-12-04T10:20:10;1.30;99.90
26278;DHT22;14000;52.056;8.510;2023-12-04T10:22:38;1.30;99.90
26278;DHT22;14000;52.056;8.510;2023-12-04T10:25:15;1.30;99.90
26278;DHT22;14000;52.056;8.510;2023-12-04T10:27:41;1.30;99.90
26278;DHT22;14000;52.056;8.510;2023-12-04T10:30:07;1.30;99.90
26278;DHT22;14000;52.056;8.510;2023-12-04T10:32:42;1.30;99.90
26278;DHT22;14000;52.056;8.510;2023-12-04T10:35:07;1.30;99.90
26278;DHT22;14000;52.056;8.510;2023-12-04T10:37:36;1.30;99.90
26278;DHT22;14000;52.056;8.510;2023-12-04T10:40:03;1.30;99.90
26278;DHT22;14000;52.056;8.510;2023-12-04T10:42:29;1.30;99.90
26278;DHT22;14000;52.056;8.510;2023-12-04T10:44:58;1.30;99.90
26278;DHT22;14000;52.056;8.510;2023-12-04T10:47:24;1.30;99.90
26278;DHT22;14000;52.056;8.510;2023-12-04T10:49:50;1.30;99.90
26278;DHT22;14000;52.056;8.510;2023-12-04T10:52:17;1.30;99.90
26278;DHT22;14000;52.056;8.510;2023-12-04T10:54:48;1.30;99.90
26278;DHT22;14000;52.056;8.510;2023-12-04T10:57:22;1.30;99.90
26278;DHT22;14000;52.056;8.510;2023-12-04T10:59:48;1.30;99.90
26278;DHT22;14000;52.056;8.510;2023-12-04T11:02:21;1.30;99.90
26278;DHT22;14000;52.056;8.510;2023-12-04T11:04:49;1.30;99.90
26278;DHT22;14000;52.056;8.510;2023-12-04T11:07:16;1.40;99.90
26278;DHT22;14000;52.056;8.510;2023-12-04T11:09:44;1.40;99.90
26278;DHT22;14000;52.056;8.510;2023-12-04T11:12:13;1.30;99.90
26278;DHT22;14000;52.056;8.510;2023-12-04T11:14:46;1.30;99.90
26278;DHT22;14000;52.056;8.510;2023-12-04T11:17:14;1.40;99.90
26278;DHT22;14000;52.056;8.510;2023-12-04T11:19:55;1.40;99.90
26278;DHT22;14000;52.056;8.510;2023-12-04T11:22:25;1.40;99.90
26278;DHT22;14000;52.056;8.510;2023-12-04T11:24:51;1.40;99.90
26278;DHT22;14000;52.056;8.510;2023-12-04T11:27:20;1.40;99.90
26278;DHT22;14000;52.056;8.510;2023-12-04T11:29:46;1.40;99.90
26278;DHT22;14000;52.056;8.510;2023-12-04T11:32:15;1.40;99.90
26278;DHT22;14000;52.056;8.510;2023-12-04T11:34:50;1.40;99.90
26278;DHT22;14000;52.056;8.510;2023-12-04T11:37:17;1.40;99.90
26278;DHT22;14000;52.056;8.510;2023-12-04T11:39:46;1.40;99.90
26278;DHT22;14000;52.056;8.510;2023-12-04T11:42:12;1.40;99.90
26278;DHT22;14000;52.056;8.510;2023-12-04T11:44:41;1.40;99.90
26278;DHT22;14000;52.056;8.510;2023-12-04T11:47:06;1.50;99.90
26278;DHT22;14000;52.056;8.510;2023-12-04T11:49:32;1.50;99.90
26278;DHT22;14000;52.056;8.510;2023-12-04T11:52:08;1.50;99.90
26278;DHT22;14000;52.056;8.510;2023-12-04T11:57:26;1.50;99.90
26278;DHT22;14000;52.056;8.510;2023-12-04T12:05:20;1.50;99.90
26278;DHT22;14000;52.056;8.510;2023-12-04T12:07:47;1.50;99.90
26278;DHT22;14000;52.056;8.510;2023-12-04T12:10:13;1.50;99.90
26278;DHT22;14000;52.056;8.510;2023-12-04T12:12:39;1.60;99.90
26278;DHT22;14000;52.056;8.510;2023-12-04T12:15:09;1.60;99.90
26278;DHT22;14000;52.056;8.510;2023-12-04T12:17:35;1.60;99.90
26278;DHT22;14000;52.056;8.510;2023-12-04T12:20:01;1.60;99.90
26278;DHT22;14000;52.056;8.510;2023-12-04T12:22:29;1.70;99.90
26278;DHT22;14000;52.056;8.510;2023-12-04T12:24:54;1.60;99.90
26278;DHT22;14000;52.056;8.510;2023-12-04T12:27:20;1.60;99.90
26278;DHT22;14000;52.056;8.510;2023-12-04T12:29:46;1.60;99.90
26278;DHT22;14000;52.056;8.510;2023-12-04T12:32:11;1.60;99.90
26278;DHT22;14000;52.056;8.510;2023-12-04T12:34:37;1.60;99.90
26278;DHT22;14000;52.056;8.510;2023-12-04T12:37:03;1.60;99.90
26278;DHT22;14000;52.056;8.510;2023-12-04T12:39:31;1.70;99.90
26278;DHT22;14000;52.056;8.510;2023-12-04T12:41:57;1.60;99.90
26278;DHT22;14000;52.056;8.510;2023-12-04T12:44:22;1.60;99.90
26278;DHT22;14000;52.056;8.510;2023-12-04T12:46:48;1.60;99.90
26278;DHT22;14000;52.056;8.510;2023-12-04T12:49:18;1.60;99.90
26278;DHT22;14000;52.056;8.510;2023-12-04T12:51:45;1.60;99.90
26278;DHT22;14000;52.056;8.510;2023-12-04T12:54:11;1.60;99.90
26278;DHT22;14000;52.056;8.510;2023-12-04T12:56:37;1.60;99.90
26278;DHT22;14000;52.056;8.510;2023-12-04T12:59:02;1.60;99.90
26278;DHT22;14000;52.056;8.510;2023-12-04T13:01:32;1.60;99.90
26278;DHT22;14000;52.056;8.510;2023-12-04T13:03:57;1.70;99.90
26278;DHT22;14000;52.056;8.510;2023-12-04T13:06:24;1.70;99.90
26278;DHT22;14000;52.056;8.510;2023-12-04T13:08:49;1.70;99.90
26278;DHT22;14000;52.056;8.510;2023-12-04T13:11:15;1.70;99.90
26278;DHT22;14000;52.056;8.510;2023-12-04T13:13:40;1.60;99.90
26278;DHT22;14000;52.056;8.510;2023-12-04T13:16:06;1.70;99.90
26278;DHT22;14000;52.056;8.510;2023-12-04T13:18:32;1.60;99.90
26278;DHT22;14000;52.056;8.510;2023-12-04T13:21:01;1.60;99.90
26278;DHT22;14000;52.056;8.510;2023-12-04T13:23:26;1.60;99.90
26278;DHT22;14000;52.056;8.510;2023-12-04T13:25:52;1.60;99.90
26278;DHT22;14000;52.056;8.510;2023-12-04T13:28:20;1.60;99.90
26278;DHT22;14000;52.056;8.510;2023-12-04T13:30:45;1.60;99.90
26278;DHT22;14000;52.056;8.510;2023-12-04T13:33:11;1.60;99.90
26278;DHT22;14000;52.056;8.510;2023-12-04T13:35:37;1.60;99.90
26278;DHT22;14000;52.056;8.510;2023-12-04T13:38:02;1.60;99.90
26278;DHT22;14000;52.056;8.510;2023-12-04T13:40:28;1.60;99.90
26278;DHT22;14000;52.056;8.510;2023-12-04T13:42:57;1.60;99.90
26278;DHT22;14000;52.056;8.510;2023-12-04T13:45:41;1.60;99.90
26278;DHT22;14000;52.056;8.510;2023-12-04T13:48:07;1.60;99.90
26278;DHT22;14000;52.056;8.510;2023-12-04T13:50:32;1.60;99.90
26278;DHT22;14000;52.056;8.510;2023-12-04T13:52:58;1.60;99.90
26278;DHT22;14000;52.056;8.510;2023-12-04T13:55:24;1.60;99.90
26278;DHT22;14000;52.056;8.510;2023-12-04T13:58:09;1.60;99.90
26278;DHT22;14000;52.056;8.510;2023-12-04T14:00:36;1.60;99.90
26278;DHT22;14000;52.056;8.510;2023-12-04T14:03:02;1.60;99.90
26278;DHT22;14000;52.056;8.510;2023-12-04T14:05:33;1.60;99.90
26278;DHT22;14000;52.056;8.510;2023-12-04T14:07:59;1.60;99.90
26278;DHT22;14000;52.056;8.510;2023-12-04T14:10:26;1.60;99.90
26278;DHT22;14000;52.056;8.510;2023-12-04T14:12:52;1.60;99.90
26278;DHT22;14000;52.056;8.510;2023-12-04T14:15:18;1.50;99.90
26278;DHT22;14000;52.056;8.510;2023-12-04T14:17:43;1.60;99.90
26278;DHT22;14000;52.056;8.510;2023-12-04T14:20:11;1.60;99.90
26278;DHT22;14000;52.056;8.510;2023-12-04T14:22:42;1.60;99.90
26278;DHT22;14000;52.056;8.510;2023-12-04T14:25:08;1.50;99.90
26278;DHT22;14000;52.056;8.510;2023-12-04T14:27:34;1.50;99.90
26278;DHT22;14000;52.056;8.510;2023-12-04T14:30:01;1.50;99.90
26278;DHT22;14000;52.056;8.510;2023-12-04T14:32:27;1.50;99.90
26278;DHT22;14000;52.056;8.510;2023-12-04T14:34:52;1.50;99.90
26278;DHT22;14000;52.056;8.510;2023-12-04T14:37:18;1.50;99.90
26278;DHT22;14000;52.056;8.510;2023-12-04T14:39:44;1.50;99.90
26278;DHT22;14000;52.056;8.510;2023-12-04T14:42:10;1.50;99.90
26278;DHT22;14000;52.056;8.510;2023-12-04T14:44:36;1.50;99.90
26278;DHT22;14000;52.056;8.510;2023-12-04T14:47:02;1.50;99.90
26278;DHT22;14000;52.056;8.510;2023-12-04T14:49:29;1.50;99.90
26278;DHT22;14000;52.056;8.510;2023-12-04T14:51:55;1.50;99.90
26278;DHT22;14000;52.056;8.510;2023-12-04T14:54:21;1.40;99.90
26278;DHT22;14000;52.056;8.510;2023-12-04T14:56:50;1.40;99.90
26278;DHT22;14000;52.056;8.510;2023-12-04T14:59:15;1.40;99.90
26278;DHT22;14000;52.056;8.510;2023-12-04T15:01:53;1.40;99.90
26278;DHT22;14000;52.056;8.510;2023-12-04T15:04:22;1.40;99.90
26278;DHT22;14000;52.056;8.510;2023-12-04T15:07:06;1.40;99.90
26278;DHT22;14000;52.056;8.510;2023-12-04T15:09:50;1.40;99.90
26278;DHT22;14000;52.056;8.510;2023-12-04T15:12:34;1.40;99.90
26278;DHT22;14000;52.056;8.510;2023-12-04T15:15:00;1.40;99.90
26278;DHT22;14000;52.056;8.510;2023-12-04T15:18:01;1.40;99.90
26278;DHT22;14000;52.056;8.510;2023-12-04T15:20:45;1.30;99.90
26278;DHT22;14000;52.056;8.510;2023-12-04T15:23:11;1.30;99.90
26278;DHT22;14000;52.056;8.510;2023-12-04T15:25:37;1.30;99.90
26278;DHT22;14000;52.056;8.510;2023-12-04T15:28:02;1.30;99.90
26278;DHT22;14000;52.056;8.510;2023-12-04T15:30:35;1.30;99.90
26278;DHT22;14000;52.056;8.510;2023-12-04T15:33:01;1.20;99.90
26278;DHT22;14000;52.056;8.510;2023-12-04T15:35:27;1.20;99.90
26278;DHT22;14000;52.056;8.510;2023-12-04T15:37:53;1.20;99.90
26278;DHT22;14000;52.056;8.510;2023-12-04T15:40:18;1.10;99.90
26278;DHT22;14000;52.056;8.510;2023-12-04T15:42:44;1.10;99.90
26278;DHT22;14000;52.056;8.510;2023-12-04T15:45:10;1.10;99.90
26278;DHT22;14000;52.056;8.510;2023-12-04T15:47:36;1.10;99.90